ADDS METAR Data INFO
IDs: Format: Raw Decoded Include TAF

Data at: 1146 UTC 21 Jun 2018

KAEX 211053Z 00000KT 9SM -RA FEW034 SCT060 BKN085 23/22 A2989 RMK AO2 RAB32 SLP125 P0003 T02330222 $
KAEX 210953Z 00000KT 10SM FEW018 SCT060 OVC075 23/22 A2989 RMK AO2 RAB0856E45 SLP123 P0000 T02330222 $
KAEX 210945Z 00000KT 10SM SCT018 BKN060 OVC075 23/22 A2989 RMK AO2 RAB0856E45 P0000 T02330222 $
KAEX 210853Z 27003KT 10SM BKN021 BKN050 BKN100 23/23 A2990 RMK AO2 LTG DSNT S RAE41 SLP126 P0001 60008 T02330228 53003 $
KAEX 210849Z 29003KT 10SM BKN021 BKN075 BKN100 23/23 A2989 RMK AO2 LTG DSNT S RAE41 P0001 $
KAEX 210753Z 19004KT 6SM -RA BR FEW120 23/22 A2988 RMK AO2 TSE04 SLP121 P0006 T02330222 $
KAEX 210729Z 20004KT 6SM -RA BR FEW090 SCT110 24/23 A2988 RMK AO2 TSE04 P0004 T02390228 $
KAEX 210710Z 20012KT 5SM VCTS RA BR SCT090 BKN110 24/23 A2989 RMK AO2 LTG DSNT S TSE04 P0002 T02440228 $
KAEX 210653Z 16006KT 6SM -TSRA BR FEW050 BKN090 BKN110 25/24 A2989 RMK AO2 LTG DSNT ALQDS RAB21 TSB49 SLP123 P0001 T02500244 $
KAEX 210553Z 17004KT 7SM FEW036 25/24 A2991 RMK AO2 LTG DSNT W SLP129 60000 T02500244 10300 20250 403170239 51005 $
KAEX 210453Z 16003KT 7SM FEW040 26/24 A2990 RMK AO2 RAB07E21 SLP127 P0000 T02560244 $
KAEX 210419Z 19005KT 9SM -RA SCT022 26/24 A2990 RMK AO2 RAB07 P0000 T02610239 $
KAEX 210409Z 18003KT 8SM -RA BKN022 26/24 A2990 RMK AO2 RAB07 P0000 T02610239 $
KAEX 210353Z 16003KT 9SM SCT024 26/24 A2990 RMK AO2 SLP127 T02610239 $
KAEX 210253Z 19005KT 9SM CLR 27/23 A2989 RMK AO2 SLP124 T02670233 53017 $
KAEX 210153Z 18004KT 10SM CLR 27/23 A2987 RMK AO2 SLP116 T02720233 $
KAEX 210053Z 18005KT 8SM CLR 28/24 A2985 RMK AO2 SLP111 T02830244 $
KAEX 202353Z 00000KT 9SM FEW046 FEW060 29/24 A2984 RMK AO2 SLP107 60032 T02940239 10317 20256 55005 $
KAEX 202253Z 28003KT 9SM CLR 29/24 A2984 RMK AO2 RAE21 SLP105 P0000 T02890239 $
KAEX 202235Z 26005KT 8SM CLR 29/25 A2984 RMK AO2 RAE21 P0000 T02890250 $
KAEX 202153Z 22003KT 9SM VCTS -RA FEW055 SCT075 29/24 A2986 RMK AO2 RAB52 SLP112 P0000 T02940244 $
KAEX 202148Z 19003KT 9SM VCTS FEW070 SCT080 30/24 A2985 RMK AO2 LTG DSNT SW $
KAEX 202053Z 34003KT 10SM FEW060 28/23 A2986 RMK AO2 PK WND 18026/2011 RAB10E31 SLP113 P0032 60032 T02830233 56020 $
KAEX 202033Z 00000KT 9SM FEW016 SCT035 BKN060 27/24 A2986 RMK AO2 PK WND 18026/2011 RAB10E31 P0032 T02720239 $
KAEX 202026Z 02003KT 2 1/2SM -RA BR FEW018 SCT035 BKN060 26/24 A2986 RMK AO2 PK WND 18026/2011 RAB10 P0032 T02610239 $
KAEX 202019Z 02003G26KT 1/2SM +RA SCT016 BKN035 BKN060 26/23 A2987 RMK AO2 PK WND 18026/2011 RAB10 P0032 T02560228 $
KAEX 202012Z 18021G26KT 1 1/4SM +RA FEW014 SCT035 BKN060 29/23 A2987 RMK AO2 PK WND 18026/2011 RAB10 P0013 T02890233 $
KAEX 201953Z 16006KT 9SM CLR 31/23 A2987 RMK AO2 SLP116 T03110233 $
KAEX 201853Z 16007KT 8SM FEW028 SCT038 30/24 A2989 RMK AO2 SLP125 T03000239 $
KAEX 201753Z 15007KT 8SM FEW028 SCT110 29/24 A2992 RMK AO2 SLP134 60000 T02890239 10289 20244 58008 $
KAEX 201737Z 14006KT 8SM FEW019 SCT024 BKN110 29/24 A2993 RMK AO2 T02890244 $
KAEX 201653Z 13004KT 7SM FEW014 SCT020 BKN025 28/24 A2993 RMK AO2 SLP139 T02780239 $
KAEX 201649Z VRB04KT 7SM FEW014 SCT019 BKN025 27/24 A2994 RMK AO2 $
KAEX 201616Z 15006KT 7SM SCT010 SCT015 27/24 A2994 RMK AO2 T02670239 $
KAEX 201607Z 15006KT 6SM HZ BKN010 BKN014 27/24 A2994 RMK AO2 T02670239 $
KAEX 201553Z 15006KT 6SM BR BKN009 OVC095 26/24 A2994 RMK AO2 RAB1456E20 SLP142 P0000 T02610239 $
KAEX 201453Z 14006KT 5SM BR BKN007 BKN080 BKN095 26/24 A2994 RMK AO2 SLP140 T02560239 51008 $
KAEX 201423Z 15006KT 5SM BR BKN007 BKN080 BKN095 25/24 A2994 RMK AO2 T02500239 $
KAEX 201408Z 14006KT 4SM BR SCT006 BKN075 25/24 A2994 RMK AO2 T02500239 $
KAEX 201353Z 14007KT 4SM BR BKN006 BKN080 24/24 A2994 RMK AO2 CIG 003V009 SLP139 T02440239 $
KAEX 201336Z 14006KT 3SM BR OVC003 24/24 A2993 RMK AO2 T02440244 $
KAEX 201253Z 16007KT 2SM BR OVC003 24/24 A2993 RMK AO2 SLP136 T02440239 $
KAEX 201232Z 14007KT 2 1/2SM BR OVC004 24/24 A2992 RMK AO2 T02440239 $
KAEX 201153Z 13006KT 4SM BR OVC004 24/23 A2991 RMK AO2 SLP131 70045 T02440233 10244 20239 55000 $
KAEX 201133Z 12006KT 4SM BR OVC004 24/23 A2991 RMK AO2 T02390233 $
KAEX 201053Z 11005KT 7SM OVC006 24/23 A2991 RMK AO2 SLP130 T02390233 $
KAEX 201011Z 11003KT 7SM BKN008 24/23 A2990 RMK AO2 T02390233 $
KAEX 201001Z 10004KT 7SM SCT008 BKN120 24/23 A2990 RMK AO2 T02390233 $
KAEX 200953Z 10005KT 7SM BKN009 BKN120 24/23 A2990 RMK AO2 SLP128 T02390233 $
KAEX 200853Z 09004KT 8SM CLR 24/23 A2991 RMK AO2 SLP131 T02390233 57007 $
KAEX 200753Z 11004KT 8SM FEW018 24/23 A2992 RMK AO2 SLP134 T02390233 $
KAEX 200653Z 10004KT 8SM CLR 24/23 A2992 RMK AO2 SLP135 T02440233 $
KAEX 200553Z 09004KT 8SM CLR 24/23 A2993 RMK AO2 SLP138 T02390233 10250 20239 402940228 58002 $
KAEX 200453Z 10005KT 8SM CLR 24/23 A2994 RMK AO2 SLP142 T02440233 $
KAEX 200353Z 09005KT 7SM CLR 24/23 A2994 RMK AO2 SLP142 T02440233 $
KAEX 200253Z 11005KT 8SM CLR 24/23 A2994 RMK AO2 SLP140 T02440233 53000 $
KAEX 200153Z 11004KT 9SM FEW120 24/23 A2993 RMK AO2 SLP137 T02440233 $
KAEX 200053Z 11004KT 9SM CLR 25/23 A2993 RMK AO2 SLP139 T02500233 $
KAEX 192353Z 12007KT 10SM CLR 25/23 A2994 RMK AO2 RAE04 SLP140 P0000 60043 T02500233 10294 20228 56014 $